CSA655 EGSS-LKPR
Flight info
| Callsign | CSA655 |
|---|---|
| Flight time | 1h 35m |
| Altitude | 35000 |
| Route | CLN P44 RATLO M197 REDFA TACHA OTMEC EXOBA TOLTA NOMKA L620 PIKIB T620 LALUK GOLOP |
| Aircraft | A339/H-SDE2E3FGHIJ1RWXY/LB1 |
Departure
| Time | 2026-05-05 18:09 |
|---|---|
| Airport | London Stansted Airport (EGSS) |
Arrival
| Time | 2026-05-05 19:44 |
|---|---|
| Airport | Václav Havel Airport Prague (LKPR) |
| Time | Latitude | Longitude | Altitude | Speed | Heading |
|---|---|---|---|---|---|
| 2026-05-05 17:30 | 51.88818 | 0.25462 | 342 ft | 0 kts | 42° |
| 2026-05-05 17:48 | 51.88815 | 0.25459 | 342 ft | 2 kts | 42° |
| 2026-05-05 17:48 | 51.88804 | 0.25442 | 342 ft | 2 kts | 42° |
| 2026-05-05 17:48 | 51.88793 | 0.25426 | 341 ft | 2 kts | 42° |
| 2026-05-05 17:48 | 51.88782 | 0.25410 | 341 ft | 2 kts | 42° |
| 2026-05-05 17:49 | 51.88775 | 0.25399 | 341 ft | 2 kts | 40° |
| 2026-05-05 17:49 | 51.88762 | 0.25387 | 341 ft | 2 kts | 15° |
| 2026-05-05 17:49 | 51.88747 | 0.25383 | 341 ft | 2 kts | 357° |
| 2026-05-05 17:49 | 51.88732 | 0.25387 | 340 ft | 2 kts | 338° |
| 2026-05-05 17:50 | 51.88720 | 0.25399 | 340 ft | 2 kts | 319° |
| 2026-05-05 17:50 | 51.88714 | 0.25407 | 340 ft | 1 kts | 311° |
| 2026-05-05 17:50 | 51.88713 | 0.25409 | 340 ft | 0 kts | 311° |
| 2026-05-05 17:57 | 51.88716 | 0.25404 | 340 ft | 1 kts | 312° |
| 2026-05-05 17:57 | 51.88723 | 0.25390 | 340 ft | 2 kts | 312° |
| 2026-05-05 17:57 | 51.88735 | 0.25369 | 340 ft | 3 kts | 312° |
| 2026-05-05 17:57 | 51.88752 | 0.25340 | 341 ft | 4 kts | 312° |
| 2026-05-05 17:58 | 51.88775 | 0.25298 | 340 ft | 6 kts | 312° |
| 2026-05-05 17:58 | 51.88811 | 0.25235 | 340 ft | 8 kts | 313° |
| 2026-05-05 17:58 | 51.88858 | 0.25154 | 339 ft | 10 kts | 313° |
| 2026-05-05 17:58 | 51.88907 | 0.25069 | 340 ft | 7 kts | 313° |
| 2026-05-05 17:59 | 51.88911 | 0.25062 | 340 ft | 0 kts | 313° |
| 2026-05-05 17:59 | 51.88914 | 0.25057 | 341 ft | 1 kts | 313° |
| 2026-05-05 18:00 | 51.88926 | 0.25038 | 341 ft | 3 kts | 313° |
| 2026-05-05 18:00 | 51.88945 | 0.25000 | 341 ft | 5 kts | 297° |
| 2026-05-05 18:00 | 51.88944 | 0.24950 | 341 ft | 5 kts | 237° |
| 2026-05-05 18:00 | 51.88913 | 0.24882 | 340 ft | 9 kts | 229° |
| 2026-05-05 18:01 | 51.88858 | 0.24796 | 340 ft | 12 kts | 223° |
| 2026-05-05 18:01 | 51.88782 | 0.24682 | 338 ft | 16 kts | 223° |
| 2026-05-05 18:01 | 51.88694 | 0.24549 | 339 ft | 18 kts | 223° |
| 2026-05-05 18:01 | 51.88599 | 0.24404 | 338 ft | 19 kts | 223° |
| 2026-05-05 18:02 | 51.88503 | 0.24257 | 339 ft | 18 kts | 223° |
| 2026-05-05 18:02 | 51.88409 | 0.24114 | 340 ft | 18 kts | 223° |
| 2026-05-05 18:02 | 51.88318 | 0.23982 | 343 ft | 17 kts | 221° |
| 2026-05-05 18:02 | 51.88232 | 0.23861 | 345 ft | 15 kts | 221° |
| 2026-05-05 18:03 | 51.88152 | 0.23745 | 347 ft | 15 kts | 221° |
| 2026-05-05 18:03 | 51.88081 | 0.23638 | 349 ft | 13 kts | 225° |
| 2026-05-05 18:03 | 51.88014 | 0.23529 | 349 ft | 14 kts | 225° |
| 2026-05-05 18:03 | 51.87942 | 0.23411 | 349 ft | 15 kts | 225° |
| 2026-05-05 18:04 | 51.87865 | 0.23293 | 349 ft | 15 kts | 222° |
| 2026-05-05 18:04 | 51.87784 | 0.23175 | 348 ft | 13 kts | 222° |
| 2026-05-05 18:04 | 51.87742 | 0.23056 | 347 ft | 11 kts | 278° |
| 2026-05-05 18:04 | 51.87774 | 0.22958 | 348 ft | 9 kts | 297° |
| 2026-05-05 18:05 | 51.87767 | 0.22875 | 348 ft | 5 kts | 220° |
| 2026-05-05 18:05 | 51.87738 | 0.22828 | 347 ft | 7 kts | 225° |
| 2026-05-05 18:05 | 51.87691 | 0.22752 | 346 ft | 11 kts | 225° |
| 2026-05-05 18:05 | 51.87626 | 0.22646 | 346 ft | 14 kts | 225° |
| 2026-05-05 18:06 | 51.87549 | 0.22529 | 347 ft | 16 kts | 222° |
| 2026-05-05 18:06 | 51.87519 | 0.22486 | 346 ft | 17 kts | 222° |
| 2026-05-05 18:06 | 51.87409 | 0.22290 | 344 ft | 12 kts | 256° |
| 2026-05-05 18:06 | 51.87426 | 0.22175 | 344 ft | 3 kts | 303° |
| 2026-05-05 18:07 | 51.87426 | 0.22174 | 344 ft | 0 kts | 303° |
| 2026-05-05 18:07 | 51.87426 | 0.22173 | 344 ft | 0 kts | 303° |
| 2026-05-05 18:07 | 51.87440 | 0.22139 | 344 ft | 7 kts | 304° |
| 2026-05-05 18:07 | 51.87487 | 0.22048 | 343 ft | 9 kts | 311° |
| 2026-05-05 18:08 | 51.87525 | 0.22025 | 343 ft | 4 kts | 16° |
| 2026-05-05 18:08 | 51.87541 | 0.22049 | 344 ft | 0 kts | 44° |
| 2026-05-05 18:08 | 51.87544 | 0.22053 | 344 ft | 2 kts | 44° |
| 2026-05-05 18:08 | 51.87671 | 0.22246 | 347 ft | 52 kts | 42° |
| 2026-05-05 18:09 | 51.88137 | 0.22933 | 351 ft | 126 kts | 42° |
| 2026-05-05 18:09 | 51.88915 | 0.24104 | 518 ft | 172 kts | 43° |
| 2026-05-05 18:09 | 51.89826 | 0.25522 | 1066 ft | 190 kts | 44° |
| 2026-05-05 18:09 | 51.90758 | 0.27017 | 1799 ft | 192 kts | 44° |
| 2026-05-05 18:10 | 51.91538 | 0.28697 | 2622 ft | 191 kts | 60° |
| 2026-05-05 18:10 | 51.91900 | 0.30834 | 3044 ft | 214 kts | 89° |
| 2026-05-05 18:10 | 51.91464 | 0.33238 | 3541 ft | 235 kts | 112° |
| 2026-05-05 18:10 | 51.90667 | 0.35648 | 4024 ft | 251 kts | 115° |
| 2026-05-05 18:11 | 51.89814 | 0.38182 | 4577 ft | 263 kts | 114° |
| 2026-05-05 18:11 | 51.88972 | 0.40840 | 5257 ft | 270 kts | 113° |
| 2026-05-05 18:11 | 51.88147 | 0.43551 | 6055 ft | 273 kts | 113° |
| 2026-05-05 18:11 | 51.87322 | 0.46321 | 6811 ft | 277 kts | 113° |
| 2026-05-05 18:12 | 51.86500 | 0.49102 | 7530 ft | 281 kts | 113° |
| 2026-05-05 18:12 | 51.85659 | 0.51963 | 8300 ft | 284 kts | 113° |
| 2026-05-05 18:12 | 51.84807 | 0.54860 | 9036 ft | 288 kts | 114° |
| 2026-05-05 18:12 | 51.83945 | 0.57790 | 9768 ft | 292 kts | 114° |
| 2026-05-05 18:13 | 51.83019 | 0.60678 | 10433 ft | 298 kts | 116° |
| 2026-05-05 18:13 | 51.82370 | 0.63895 | 10821 ft | 311 kts | 94° |
| 2026-05-05 18:13 | 51.82503 | 0.67477 | 10957 ft | 333 kts | 79° |
| 2026-05-05 18:13 | 51.82917 | 0.71224 | 10949 ft | 345 kts | 79° |
| 2026-05-05 18:14 | 51.83257 | 0.75123 | 11344 ft | 354 kts | 83° |
| 2026-05-05 18:14 | 51.83490 | 0.79068 | 12193 ft | 354 kts | 84° |
| 2026-05-05 18:14 | 51.83669 | 0.83016 | 12971 ft | 356 kts | 85° |
| 2026-05-05 18:14 | 51.83825 | 0.86999 | 13672 ft | 361 kts | 86° |
| 2026-05-05 18:15 | 51.83978 | 0.91064 | 14366 ft | 365 kts | 86° |
| 2026-05-05 18:15 | 51.84128 | 0.95160 | 15073 ft | 369 kts | 86° |
| 2026-05-05 18:15 | 51.84278 | 0.99288 | 15782 ft | 373 kts | 86° |
| 2026-05-05 18:15 | 51.84430 | 1.03478 | 16472 ft | 376 kts | 86° |
| 2026-05-05 18:16 | 51.84583 | 1.07706 | 17147 ft | 380 kts | 86° |
| 2026-05-05 18:16 | 51.84810 | 1.11922 | 17804 ft | 384 kts | 81° |
| 2026-05-05 18:16 | 51.85376 | 1.16182 | 18470 ft | 387 kts | 73° |
| 2026-05-05 18:16 | 51.86275 | 1.20258 | 19118 ft | 390 kts | 67° |
| 2026-05-05 18:17 | 51.87351 | 1.24307 | 19761 ft | 394 kts | 65° |
| 2026-05-05 18:17 | 51.88452 | 1.28337 | 20381 ft | 398 kts | 65° |
| 2026-05-05 18:17 | 51.89565 | 1.32409 | 20983 ft | 401 kts | 65° |
| 2026-05-05 18:17 | 51.90696 | 1.36580 | 21581 ft | 404 kts | 65° |
| 2026-05-05 18:18 | 51.91817 | 1.40739 | 22167 ft | 407 kts | 66° |
| 2026-05-05 18:18 | 51.92940 | 1.44922 | 22727 ft | 411 kts | 66° |
| 2026-05-05 18:18 | 51.94076 | 1.49174 | 23264 ft | 414 kts | 66° |
| 2026-05-05 18:18 | 51.95225 | 1.53480 | 23788 ft | 417 kts | 66° |
| 2026-05-05 18:19 | 51.96361 | 1.57754 | 24275 ft | 421 kts | 66° |
| 2026-05-05 18:19 | 51.97535 | 1.62169 | 24747 ft | 425 kts | 66° |
| 2026-05-05 18:19 | 51.98618 | 1.66596 | 25206 ft | 429 kts | 71° |
| 2026-05-05 18:19 | 51.99561 | 1.71220 | 25672 ft | 432 kts | 74° |
| 2026-05-05 18:20 | 52.00348 | 1.75917 | 26128 ft | 435 kts | 77° |
| 2026-05-05 18:20 | 52.00845 | 1.79091 | 26422 ft | 438 kts | 77° |
| 2026-05-05 18:20 | 52.01826 | 1.85451 | 27000 ft | 442 kts | 77° |
| 2026-05-05 18:20 | 52.02573 | 1.90309 | 27437 ft | 445 kts | 77° |
| 2026-05-05 18:21 | 52.03315 | 1.95143 | 27845 ft | 448 kts | 78° |
| 2026-05-05 18:21 | 52.04071 | 2.00071 | 28245 ft | 451 kts | 78° |
| 2026-05-05 18:21 | 52.04829 | 2.05019 | 28622 ft | 455 kts | 78° |
| 2026-05-05 18:21 | 52.05593 | 2.10013 | 29009 ft | 458 kts | 78° |
| 2026-05-05 18:22 | 52.06355 | 2.15006 | 29376 ft | 461 kts | 78° |
| 2026-05-05 18:22 | 52.07128 | 2.20084 | 29746 ft | 463 kts | 78° |
| 2026-05-05 18:22 | 52.07892 | 2.25111 | 30114 ft | 466 kts | 78° |
| 2026-05-05 18:22 | 52.08671 | 2.30257 | 30460 ft | 469 kts | 78° |
| 2026-05-05 18:23 | 52.09443 | 2.35373 | 30793 ft | 472 kts | 79° |
| 2026-05-05 18:23 | 52.10222 | 2.40574 | 31204 ft | 473 kts | 79° |
| 2026-05-05 18:23 | 52.10992 | 2.45721 | 31706 ft | 471 kts | 78° |
| 2026-05-05 18:23 | 52.11839 | 2.50827 | 32209 ft | 471 kts | 76° |
| 2026-05-05 18:24 | 52.12793 | 2.55939 | 32672 ft | 470 kts | 75° |
| 2026-05-05 18:24 | 52.13753 | 2.60968 | 33103 ft | 470 kts | 75° |
| 2026-05-05 18:24 | 52.14725 | 2.66041 | 33490 ft | 470 kts | 76° |
| 2026-05-05 18:24 | 52.15689 | 2.71097 | 33815 ft | 471 kts | 75° |
| 2026-05-05 18:25 | 52.16661 | 2.76211 | 34137 ft | 472 kts | 75° |
| 2026-05-05 18:25 | 52.16980 | 2.77895 | 34247 ft | 473 kts | 76° |
| 2026-05-05 18:25 | 52.18574 | 2.86353 | 34771 ft | 474 kts | 75° |
| 2026-05-05 18:25 | 52.19548 | 2.91544 | 34926 ft | 477 kts | 75° |
| 2026-05-05 18:26 | 52.20511 | 2.96684 | 34926 ft | 477 kts | 75° |
| 2026-05-05 18:26 | 52.22435 | 3.06998 | 34937 ft | 478 kts | 75° |
| 2026-05-05 18:27 | 52.24000 | 3.17457 | 34933 ft | 477 kts | 82° |
| 2026-05-05 18:27 | 52.24738 | 3.28148 | 34926 ft | 474 kts | 90° |
| 2026-05-05 18:28 | 52.24331 | 3.44084 | 34920 ft | 470 kts | 98° |
| 2026-05-05 18:28 | 52.23642 | 3.54653 | 34918 ft | 469 kts | 99° |
| 2026-05-05 18:29 | 52.22946 | 3.65234 | 34927 ft | 469 kts | 100° |
| 2026-05-05 18:29 | 52.22252 | 3.75768 | 34922 ft | 469 kts | 100° |
| 2026-05-05 18:30 | 52.21553 | 3.86267 | 34912 ft | 468 kts | 100° |
| 2026-05-05 18:30 | 52.20843 | 3.96820 | 34913 ft | 468 kts | 100° |
| 2026-05-05 18:31 | 52.20128 | 4.07297 | 34916 ft | 467 kts | 100° |
| 2026-05-05 18:31 | 52.19405 | 4.17750 | 34914 ft | 467 kts | 100° |
| 2026-05-05 18:32 | 52.18670 | 4.28239 | 34912 ft | 468 kts | 100° |
| 2026-05-05 18:32 | 52.17926 | 4.38732 | 34905 ft | 467 kts | 100° |
| 2026-05-05 18:33 | 52.17167 | 4.49298 | 34901 ft | 467 kts | 100° |
| 2026-05-05 18:33 | 52.16404 | 4.59773 | 34901 ft | 470 kts | 99° |
| 2026-05-05 18:34 | 52.15624 | 4.70363 | 34900 ft | 471 kts | 101° |
| 2026-05-05 18:34 | 52.14835 | 4.80962 | 34899 ft | 471 kts | 100° |
| 2026-05-05 18:35 | 52.14044 | 4.91447 | 34897 ft | 469 kts | 100° |
| 2026-05-05 18:35 | 52.13240 | 5.01974 | 34896 ft | 470 kts | 101° |
| 2026-05-05 18:36 | 52.12428 | 5.12504 | 34895 ft | 470 kts | 101° |
| 2026-05-05 18:36 | 52.11607 | 5.22986 | 34890 ft | 470 kts | 101° |
| 2026-05-05 18:37 | 52.10782 | 5.33427 | 34888 ft | 469 kts | 101° |
| 2026-05-05 18:37 | 52.09941 | 5.43943 | 34888 ft | 469 kts | 101° |
| 2026-05-05 18:38 | 52.09096 | 5.54380 | 34885 ft | 468 kts | 101° |
| 2026-05-05 18:38 | 52.08244 | 5.64811 | 34885 ft | 467 kts | 101° |
| 2026-05-05 18:39 | 52.07385 | 5.75195 | 34885 ft | 466 kts | 102° |
| 2026-05-05 18:39 | 52.06451 | 5.85553 | 34885 ft | 464 kts | 105° |
| 2026-05-05 18:40 | 52.05323 | 5.95864 | 34882 ft | 462 kts | 105° |
| 2026-05-05 18:40 | 52.04189 | 6.06060 | 34879 ft | 463 kts | 105° |
| 2026-05-05 18:41 | 52.03044 | 6.16300 | 34867 ft | 461 kts | 105° |
| 2026-05-05 18:41 | 52.01894 | 6.26533 | 34859 ft | 461 kts | 105° |
| 2026-05-05 18:42 | 52.00740 | 6.36711 | 34859 ft | 461 kts | 105° |
| 2026-05-05 18:42 | 51.99579 | 6.46894 | 34854 ft | 460 kts | 105° |
| 2026-05-05 18:43 | 51.98416 | 6.56991 | 34849 ft | 460 kts | 105° |
| 2026-05-05 18:43 | 51.97230 | 6.67205 | 34849 ft | 460 kts | 106° |
| 2026-05-05 18:44 | 51.96052 | 6.77296 | 34843 ft | 459 kts | 106° |
| 2026-05-05 18:44 | 51.94857 | 6.87429 | 34855 ft | 459 kts | 106° |
| 2026-05-05 18:45 | 51.93653 | 6.97568 | 34856 ft | 459 kts | 106° |
| 2026-05-05 18:45 | 51.92443 | 7.07670 | 34856 ft | 459 kts | 105° |
| 2026-05-05 18:46 | 51.91222 | 7.17788 | 34850 ft | 459 kts | 105° |
| 2026-05-05 18:46 | 51.89997 | 7.27890 | 34846 ft | 459 kts | 105° |
| 2026-05-05 18:47 | 51.88763 | 7.37973 | 34836 ft | 459 kts | 105° |
| 2026-05-05 18:47 | 51.87522 | 7.48039 | 34842 ft | 458 kts | 105° |
| 2026-05-05 18:48 | 51.86269 | 7.58133 | 34832 ft | 459 kts | 106° |
| 2026-05-05 18:48 | 51.85010 | 7.68187 | 34835 ft | 458 kts | 107° |
| 2026-05-05 18:49 | 51.83746 | 7.78213 | 34829 ft | 458 kts | 107° |
| 2026-05-05 18:49 | 51.82472 | 7.88239 | 34820 ft | 457 kts | 107° |
| 2026-05-05 18:50 | 51.81190 | 7.98273 | 34806 ft | 458 kts | 107° |
| 2026-05-05 18:50 | 51.79895 | 8.08325 | 34813 ft | 458 kts | 107° |
| 2026-05-05 18:51 | 51.78595 | 8.18366 | 34817 ft | 458 kts | 107° |
| 2026-05-05 18:51 | 51.77283 | 8.28418 | 34817 ft | 460 kts | 106° |
| 2026-05-05 18:52 | 51.76337 | 8.38572 | 34816 ft | 462 kts | 101° |
| 2026-05-05 18:52 | 51.75679 | 8.48856 | 34817 ft | 463 kts | 101° |
| 2026-05-05 18:53 | 51.75023 | 8.59147 | 34819 ft | 463 kts | 101° |
| 2026-05-05 18:53 | 51.74355 | 8.69425 | 34818 ft | 461 kts | 102° |
| 2026-05-05 18:54 | 51.73680 | 8.79648 | 34816 ft | 461 kts | 102° |
| 2026-05-05 18:54 | 51.72994 | 8.89866 | 34814 ft | 462 kts | 102° |
| 2026-05-05 18:55 | 51.72298 | 9.00125 | 34812 ft | 461 kts | 102° |
| 2026-05-05 18:55 | 51.71598 | 9.10325 | 34807 ft | 460 kts | 102° |
| 2026-05-05 18:56 | 51.70882 | 9.20612 | 34807 ft | 462 kts | 102° |
| 2026-05-05 18:56 | 51.70161 | 9.30832 | 34803 ft | 462 kts | 102° |
| 2026-05-05 18:57 | 51.69417 | 9.41084 | 34800 ft | 461 kts | 103° |
| 2026-05-05 18:57 | 51.68219 | 9.51148 | 34803 ft | 457 kts | 109° |
| 2026-05-05 18:58 | 51.66385 | 9.60830 | 34802 ft | 451 kts | 115° |
| 2026-05-05 18:58 | 51.64147 | 9.70256 | 34801 ft | 452 kts | 117° |
| 2026-05-05 18:59 | 51.61910 | 9.79614 | 34801 ft | 451 kts | 116° |
| 2026-05-05 18:59 | 51.59653 | 9.89029 | 34803 ft | 452 kts | 117° |
| 2026-05-05 19:00 | 51.57393 | 9.98424 | 34803 ft | 452 kts | 116° |
| 2026-05-05 19:00 | 51.55124 | 10.07802 | 34802 ft | 452 kts | 116° |
| 2026-05-05 19:01 | 51.52850 | 10.17172 | 34798 ft | 452 kts | 116° |
| 2026-05-05 19:01 | 51.50584 | 10.26481 | 34798 ft | 453 kts | 116° |
| 2026-05-05 19:02 | 51.48283 | 10.35881 | 34794 ft | 452 kts | 116° |
| 2026-05-05 19:02 | 51.45987 | 10.45238 | 34787 ft | 454 kts | 116° |
| 2026-05-05 19:03 | 51.44020 | 10.54863 | 34786 ft | 459 kts | 110° |
| 2026-05-05 19:03 | 51.42445 | 10.64770 | 34786 ft | 461 kts | 109° |
| 2026-05-05 19:04 | 51.40876 | 10.74713 | 34784 ft | 461 kts | 110° |
| 2026-05-05 19:04 | 51.39297 | 10.84629 | 34780 ft | 461 kts | 110° |
| 2026-05-05 19:05 | 51.37703 | 10.94557 | 34782 ft | 462 kts | 110° |
| 2026-05-05 19:05 | 51.36094 | 11.04472 | 34780 ft | 462 kts | 110° |
| 2026-05-05 19:06 | 51.34482 | 11.14355 | 34780 ft | 463 kts | 110° |
| 2026-05-05 19:06 | 51.32854 | 11.24276 | 34779 ft | 463 kts | 110° |
| 2026-05-05 19:07 | 51.31504 | 11.32499 | 34779 ft | 464 kts | 110° |
| 2026-05-05 19:07 | 51.29599 | 11.44082 | 34778 ft | 463 kts | 109° |
| 2026-05-05 19:08 | 51.27925 | 11.54039 | 34773 ft | 462 kts | 110° |
| 2026-05-05 19:08 | 51.26263 | 11.63855 | 34770 ft | 462 kts | 110° |
| 2026-05-05 19:09 | 51.24589 | 11.73783 | 34772 ft | 462 kts | 110° |
| 2026-05-05 19:09 | 51.22926 | 11.83602 | 34774 ft | 462 kts | 110° |
| 2026-05-05 19:10 | 51.21253 | 11.93408 | 34771 ft | 458 kts | 110° |
| 2026-05-05 19:10 | 51.19576 | 12.03199 | 34777 ft | 458 kts | 110° |
| 2026-05-05 19:11 | 51.17911 | 12.12893 | 34766 ft | 456 kts | 110° |
| 2026-05-05 19:11 | 51.16227 | 12.22633 | 34761 ft | 457 kts | 110° |
| 2026-05-05 19:12 | 51.14522 | 12.32347 | 34767 ft | 459 kts | 110° |
| 2026-05-05 19:12 | 51.12793 | 12.42113 | 34770 ft | 459 kts | 110° |
| 2026-05-05 19:13 | 51.11076 | 12.51794 | 34764 ft | 459 kts | 110° |
| 2026-05-05 19:13 | 51.09343 | 12.61506 | 34769 ft | 459 kts | 110° |
| 2026-05-05 19:14 | 51.07584 | 12.71267 | 34762 ft | 460 kts | 111° |
| 2026-05-05 19:14 | 51.05820 | 12.81008 | 34751 ft | 459 kts | 111° |
| 2026-05-05 19:15 | 51.04949 | 12.85814 | 34623 ft | 454 kts | 111° |
| 2026-05-05 19:15 | 51.04071 | 12.90650 | 33953 ft | 455 kts | 111° |
| 2026-05-05 19:15 | 51.03188 | 12.95468 | 33139 ft | 458 kts | 110° |
| 2026-05-05 19:15 | 51.02313 | 13.00244 | 32301 ft | 453 kts | 110° |
| 2026-05-05 19:16 | 51.01447 | 13.04984 | 31507 ft | 448 kts | 110° |
| 2026-05-05 19:16 | 51.00582 | 13.09702 | 30699 ft | 442 kts | 110° |
| 2026-05-05 19:16 | 50.99734 | 13.14310 | 29877 ft | 436 kts | 109° |
| 2026-05-05 19:16 | 50.98893 | 13.18876 | 29117 ft | 427 kts | 109° |
| 2026-05-05 19:17 | 50.98072 | 13.23331 | 28431 ft | 417 kts | 110° |
| 2026-05-05 19:17 | 50.97276 | 13.27620 | 27752 ft | 408 kts | 110° |
| 2026-05-05 19:17 | 50.96486 | 13.31868 | 27068 ft | 400 kts | 109° |
| 2026-05-05 19:17 | 50.95724 | 13.36078 | 26389 ft | 393 kts | 109° |
| 2026-05-05 19:18 | 50.94994 | 13.40202 | 25726 ft | 386 kts | 109° |
| 2026-05-05 19:18 | 50.94279 | 13.44226 | 25071 ft | 380 kts | 109° |
| 2026-05-05 19:18 | 50.93573 | 13.48187 | 24427 ft | 377 kts | 109° |
| 2026-05-05 19:18 | 50.92842 | 13.52180 | 23870 ft | 378 kts | 109° |
| 2026-05-05 19:19 | 50.92091 | 13.56177 | 23325 ft | 380 kts | 109° |
| 2026-05-05 19:19 | 50.91341 | 13.60153 | 22800 ft | 382 kts | 109° |
| 2026-05-05 19:19 | 50.90582 | 13.64182 | 22274 ft | 384 kts | 109° |
| 2026-05-05 19:19 | 50.89727 | 13.68191 | 21742 ft | 383 kts | 116° |
| 2026-05-05 19:20 | 50.88534 | 13.71937 | 21214 ft | 381 kts | 124° |
| 2026-05-05 19:20 | 50.87030 | 13.75345 | 20690 ft | 380 kts | 131° |
| 2026-05-05 19:20 | 50.85374 | 13.78568 | 20169 ft | 381 kts | 132° |
| 2026-05-05 19:20 | 50.83682 | 13.81795 | 19645 ft | 382 kts | 132° |
| 2026-05-05 19:21 | 50.81993 | 13.85029 | 19120 ft | 383 kts | 131° |
| 2026-05-05 19:21 | 50.80414 | 13.88424 | 18594 ft | 384 kts | 127° |
| 2026-05-05 19:21 | 50.79022 | 13.91976 | 18076 ft | 386 kts | 122° |
| 2026-05-05 19:21 | 50.77707 | 13.95671 | 17558 ft | 386 kts | 121° |
| 2026-05-05 19:22 | 50.76405 | 13.99374 | 17039 ft | 386 kts | 121° |
| 2026-05-05 19:22 | 50.75116 | 14.03042 | 16524 ft | 386 kts | 121° |
| 2026-05-05 19:22 | 50.73825 | 14.06708 | 15918 ft | 376 kts | 121° |
| 2026-05-05 19:22 | 50.72581 | 14.10243 | 15406 ft | 359 kts | 121° |
| 2026-05-05 19:23 | 50.71405 | 14.13570 | 14917 ft | 344 kts | 121° |
| 2026-05-05 19:23 | 50.70268 | 14.16779 | 14423 ft | 331 kts | 121° |
| 2026-05-05 19:23 | 50.69167 | 14.19883 | 13985 ft | 318 kts | 121° |
| 2026-05-05 19:23 | 50.68101 | 14.22888 | 13572 ft | 313 kts | 121° |
| 2026-05-05 19:24 | 50.67043 | 14.25858 | 13200 ft | 315 kts | 121° |
| 2026-05-05 19:24 | 50.65964 | 14.28885 | 12782 ft | 317 kts | 121° |
| 2026-05-05 19:24 | 50.64884 | 14.31919 | 12365 ft | 319 kts | 121° |
| 2026-05-05 19:24 | 50.63792 | 14.34975 | 11946 ft | 320 kts | 121° |
| 2026-05-05 19:25 | 50.62700 | 14.38030 | 11523 ft | 321 kts | 121° |
| 2026-05-05 19:25 | 50.61611 | 14.41073 | 11200 ft | 318 kts | 121° |
| 2026-05-05 19:25 | 50.60568 | 14.43989 | 10875 ft | 301 kts | 121° |
| 2026-05-05 19:25 | 50.59417 | 14.46578 | 10740 ft | 277 kts | 139° |
| 2026-05-05 19:26 | 50.57839 | 14.48217 | 10750 ft | 269 kts | 159° |
| 2026-05-05 19:26 | 50.56044 | 14.48857 | 10749 ft | 269 kts | 179° |
| 2026-05-05 19:26 | 50.54175 | 14.48601 | 10784 ft | 271 kts | 187° |
| 2026-05-05 19:26 | 50.52320 | 14.48173 | 10766 ft | 269 kts | 187° |
| 2026-05-05 19:27 | 50.50457 | 14.47741 | 10532 ft | 270 kts | 187° |
| 2026-05-05 19:27 | 50.48616 | 14.47319 | 10236 ft | 270 kts | 187° |
| 2026-05-05 19:27 | 50.46752 | 14.46898 | 9937 ft | 270 kts | 187° |
| 2026-05-05 19:27 | 50.44884 | 14.46480 | 9634 ft | 271 kts | 188° |
| 2026-05-05 19:28 | 50.43038 | 14.46065 | 9322 ft | 271 kts | 188° |
| 2026-05-05 19:28 | 50.41166 | 14.45642 | 9008 ft | 271 kts | 188° |
| 2026-05-05 19:28 | 50.39318 | 14.45228 | 8694 ft | 271 kts | 188° |
| 2026-05-05 19:28 | 50.37479 | 14.44598 | 8405 ft | 271 kts | 200° |
| 2026-05-05 19:29 | 50.35819 | 14.43292 | 8064 ft | 264 kts | 213° |
| 2026-05-05 19:29 | 50.34361 | 14.41620 | 7713 ft | 254 kts | 216° |
| 2026-05-05 19:29 | 50.32990 | 14.39983 | 7412 ft | 247 kts | 216° |
| 2026-05-05 19:29 | 50.31626 | 14.38355 | 7146 ft | 246 kts | 216° |
| 2026-05-05 19:30 | 50.30264 | 14.36739 | 6854 ft | 247 kts | 215° |
| 2026-05-05 19:30 | 50.28902 | 14.35133 | 6560 ft | 247 kts | 215° |
| 2026-05-05 19:30 | 50.27518 | 14.33508 | 6267 ft | 247 kts | 216° |
| 2026-05-05 19:30 | 50.26151 | 14.31907 | 5973 ft | 246 kts | 216° |
| 2026-05-05 19:31 | 50.24797 | 14.30316 | 5682 ft | 246 kts | 216° |
| 2026-05-05 19:31 | 50.23394 | 14.28781 | 5376 ft | 246 kts | 204° |
| 2026-05-05 19:31 | 50.21743 | 14.28252 | 5074 ft | 244 kts | 172° |
| 2026-05-05 19:31 | 50.20220 | 14.29130 | 4996 ft | 231 kts | 139° |
| 2026-05-05 19:32 | 50.19211 | 14.31005 | 5007 ft | 223 kts | 117° |
| 2026-05-05 19:32 | 50.18787 | 14.33296 | 5005 ft | 224 kts | 94° |
| 2026-05-05 19:32 | 50.18711 | 14.35757 | 5004 ft | 227 kts | 90° |
| 2026-05-05 19:32 | 50.18693 | 14.38198 | 4999 ft | 226 kts | 96° |
| 2026-05-05 19:33 | 50.18186 | 14.40445 | 4976 ft | 224 kts | 129° |
| 2026-05-05 19:33 | 50.16946 | 14.41887 | 4985 ft | 225 kts | 161° |
| 2026-05-05 19:33 | 50.15408 | 14.42029 | 4986 ft | 227 kts | 195° |
| 2026-05-05 19:33 | 50.14045 | 14.40817 | 4992 ft | 229 kts | 228° |
| 2026-05-05 19:34 | 50.13326 | 14.38656 | 4995 ft | 228 kts | 262° |
| 2026-05-05 19:34 | 50.13484 | 14.36219 | 4996 ft | 229 kts | 294° |
| 2026-05-05 19:34 | 50.14409 | 14.34238 | 5005 ft | 231 kts | 315° |
| 2026-05-05 19:35 | 50.16803 | 14.30896 | 4605 ft | 230 kts | 320° |
| 2026-05-05 19:35 | 50.18023 | 14.29264 | 4396 ft | 236 kts | 320° |
| 2026-05-05 19:35 | 50.19266 | 14.27589 | 4175 ft | 235 kts | 320° |
| 2026-05-05 19:35 | 50.20494 | 14.25920 | 4015 ft | 231 kts | 320° |
| 2026-05-05 19:36 | 50.21687 | 14.24229 | 4003 ft | 232 kts | 316° |
| 2026-05-05 19:36 | 50.22719 | 14.22298 | 4000 ft | 233 kts | 306° |
| 2026-05-05 19:36 | 50.23598 | 14.20204 | 3996 ft | 234 kts | 303° |
| 2026-05-05 19:36 | 50.24467 | 14.18025 | 4002 ft | 234 kts | 303° |
| 2026-05-05 19:37 | 50.25314 | 14.15892 | 4014 ft | 233 kts | 303° |
| 2026-05-05 19:37 | 50.26195 | 14.13774 | 4001 ft | 232 kts | 305° |
| 2026-05-05 19:37 | 50.27086 | 14.11679 | 3990 ft | 232 kts | 305° |
| 2026-05-05 19:37 | 50.27983 | 14.09571 | 4005 ft | 232 kts | 305° |
| 2026-05-05 19:38 | 50.28875 | 14.07456 | 4004 ft | 232 kts | 301° |
| 2026-05-05 19:38 | 50.29327 | 14.05087 | 3977 ft | 235 kts | 270° |
| 2026-05-05 19:38 | 50.28891 | 14.02629 | 3983 ft | 239 kts | 238° |
| 2026-05-05 19:38 | 50.27687 | 14.00835 | 3991 ft | 243 kts | 212° |
| 2026-05-05 19:39 | 50.26196 | 13.99584 | 4001 ft | 243 kts | 206° |
| 2026-05-05 19:39 | 50.24669 | 13.98528 | 3993 ft | 242 kts | 195° |
| 2026-05-05 19:39 | 50.23019 | 13.98468 | 3965 ft | 233 kts | 162° |
| 2026-05-05 19:39 | 50.21692 | 13.99720 | 3963 ft | 218 kts | 127° |
| 2026-05-05 19:40 | 50.20996 | 14.01696 | 3979 ft | 205 kts | 109° |
| 2026-05-05 19:40 | 50.20467 | 14.03734 | 3967 ft | 201 kts | 114° |
| 2026-05-05 19:40 | 50.19814 | 14.05602 | 3956 ft | 190 kts | 121° |
| 2026-05-05 19:40 | 50.19096 | 14.07321 | 3787 ft | 189 kts | 122° |
| 2026-05-05 19:41 | 50.18336 | 14.08993 | 3561 ft | 185 kts | 124° |
| 2026-05-05 19:41 | 50.17577 | 14.10575 | 3320 ft | 181 kts | 124° |
| 2026-05-05 19:41 | 50.16827 | 14.12111 | 3084 ft | 178 kts | 124° |
| 2026-05-05 19:41 | 50.16086 | 14.13631 | 2856 ft | 177 kts | 124° |
| 2026-05-05 19:42 | 50.15342 | 14.15162 | 2635 ft | 175 kts | 124° |
| 2026-05-05 19:42 | 50.14623 | 14.16644 | 2405 ft | 172 kts | 124° |
| 2026-05-05 19:42 | 50.13901 | 14.18136 | 2175 ft | 171 kts | 124° |
| 2026-05-05 19:42 | 50.13199 | 14.19586 | 1959 ft | 168 kts | 124° |
| 2026-05-05 19:43 | 50.12505 | 14.21017 | 1741 ft | 161 kts | 124° |
| 2026-05-05 19:43 | 50.11847 | 14.22377 | 1536 ft | 155 kts | 124° |
| 2026-05-05 19:43 | 50.11210 | 14.23691 | 1331 ft | 149 kts | 124° |
| 2026-05-05 19:43 | 50.10593 | 14.24959 | 1179 ft | 141 kts | 126° |
| 2026-05-05 19:44 | 50.10160 | 14.25875 | 1198 ft | 72 kts | 128° |
| 2026-05-05 19:44 | 50.09898 | 14.26408 | 1214 ft | 56 kts | 127° |
| 2026-05-05 19:44 | 50.09691 | 14.26856 | 1221 ft | 45 kts | 127° |
| 2026-05-05 19:44 | 50.09517 | 14.27210 | 1224 ft | 37 kts | 128° |
| 2026-05-05 19:45 | 50.09436 | 14.27432 | 1225 ft | 15 kts | 74° |
| 2026-05-05 19:45 | 50.09481 | 14.27485 | 1223 ft | 3 kts | 29° |
| 2026-05-05 19:45 | 50.09517 | 14.27533 | 1221 ft | 10 kts | 38° |
| 2026-05-05 19:45 | 50.09592 | 14.27623 | 1215 ft | 15 kts | 28° |
| 2026-05-05 19:46 | 50.09692 | 14.27564 | 1210 ft | 17 kts | 316° |
| 2026-05-05 19:46 | 50.09780 | 14.27430 | 1210 ft | 17 kts | 316° |
| 2026-05-05 19:46 | 50.09864 | 14.27288 | 1209 ft | 17 kts | 309° |
| 2026-05-05 19:46 | 50.09941 | 14.27136 | 1209 ft | 17 kts | 308° |
| 2026-05-05 19:47 | 50.10018 | 14.26982 | 1209 ft | 17 kts | 304° |
| 2026-05-05 19:47 | 50.10090 | 14.26819 | 1208 ft | 18 kts | 305° |
| 2026-05-05 19:47 | 50.10167 | 14.26654 | 1206 ft | 19 kts | 307° |
| 2026-05-05 19:47 | 50.10254 | 14.26485 | 1203 ft | 21 kts | 309° |
| 2026-05-05 19:48 | 50.10353 | 14.26299 | 1195 ft | 21 kts | 307° |
| 2026-05-05 19:48 | 50.10421 | 14.26150 | 1190 ft | 13 kts | 304° |
| 2026-05-05 19:48 | 50.10472 | 14.26034 | 1188 ft | 10 kts | 305° |
| 2026-05-05 19:48 | 50.10518 | 14.25984 | 1186 ft | 4 kts | 7° |
| 2026-05-05 19:49 | 50.10525 | 14.26005 | 1186 ft | 0 kts | 98° |
| 2026-05-05 19:49 | 50.10525 | 14.26010 | 1186 ft | 1 kts | 89° |
| 2026-05-05 19:49 | 50.10534 | 14.26063 | 1186 ft | 5 kts | 69° |
| 2026-05-05 19:49 | 50.10554 | 14.26117 | 1185 ft | 2 kts | 34° |
| 2026-05-05 19:50 | 50.10580 | 14.26147 | 1184 ft | 7 kts | 36° |
| 2026-05-05 19:50 | 50.10608 | 14.26179 | 1183 ft | 1 kts | 36° |
| 2026-05-05 19:50 | 50.10615 | 14.26187 | 1183 ft | 0 kts | 36° |
| 2026-05-05 19:51 | 50.10627 | 14.26201 | 1183 ft | 0 kts | 34° |